sensor_id;sensor_type;location;lat;lon;timestamp;pressure;altitude;pressure_sealevel;temperature;humidity
60170;BME280;46042;49.444;6.862;2023-12-20T00:01:06;98761.13;;;3.25;100.00
60170;BME280;46042;49.444;6.862;2023-12-20T00:03:33;98764.63;;;3.24;100.00
60170;BME280;46042;49.444;6.862;2023-12-20T00:06:08;98760.38;;;3.22;100.00
60170;BME280;46042;49.444;6.862;2023-12-20T00:08:35;98770.38;;;3.34;100.00
60170;BME280;46042;49.444;6.862;2023-12-20T00:11:02;98766.00;;;3.35;100.00
60170;BME280;46042;49.444;6.862;2023-12-20T00:13:29;98754.69;;;3.36;100.00
60170;BME280;46042;49.444;6.862;2023-12-20T00:15:56;98769.88;;;3.23;100.00
60170;BME280;46042;49.444;6.862;2023-12-20T00:18:23;98761.94;;;3.27;100.00
60170;BME280;46042;49.444;6.862;2023-12-20T00:20:50;98779.06;;;3.33;100.00
60170;BME280;46042;49.444;6.862;2023-12-20T00:23:17;98775.59;;;3.34;100.00
60170;BME280;46042;49.444;6.862;2023-12-20T00:25:43;98759.91;;;3.36;100.00
60170;BME280;46042;49.444;6.862;2023-12-20T00:28:10;98758.31;;;3.32;100.00
60170;BME280;46042;49.444;6.862;2023-12-20T00:30:37;98756.66;;;3.29;100.00
60170;BME280;46042;49.444;6.862;2023-12-20T00:33:04;98745.81;;;3.41;100.00
60170;BME280;46042;49.444;6.862;2023-12-20T00:35:31;98741.56;;;3.39;100.00
60170;BME280;46042;49.444;6.862;2023-12-20T00:37:58;98744.25;;;3.37;100.00
60170;BME280;46042;49.444;6.862;2023-12-20T00:40:25;98740.84;;;3.35;100.00
60170;BME280;46042;49.444;6.862;2023-12-20T00:42:52;98740.66;;;3.40;100.00
60170;BME280;46042;49.444;6.862;2023-12-20T00:45:19;98740.56;;;3.43;100.00
60170;BME280;46042;49.444;6.862;2023-12-20T00:47:45;98736.16;;;3.45;100.00
60170;BME280;46042;49.444;6.862;2023-12-20T00:50:13;98736.16;;;3.45;100.00
60170;BME280;46042;49.444;6.862;2023-12-20T00:52:40;98725.56;;;3.50;100.00
60170;BME280;46042;49.444;6.862;2023-12-20T00:55:06;98723.81;;;3.50;100.00
60170;BME280;46042;49.444;6.862;2023-12-20T00:57:34;98723.94;;;3.47;100.00
60170;BME280;46042;49.444;6.862;2023-12-20T01:00:01;98735.88;;;3.53;100.00
60170;BME280;46042;49.444;6.862;2023-12-20T01:02:28;98732.47;;;3.51;100.00
60170;BME280;46042;49.444;6.862;2023-12-20T01:04:55;98740.19;;;3.54;100.00
60170;BME280;46042;49.444;6.862;2023-12-20T01:07:22;98736.94;;;3.47;100.00
60170;BME280;46042;49.444;6.862;2023-12-20T01:09:49;98738.31;;;3.58;100.00
60170;BME280;46042;49.444;6.862;2023-12-20T01:12:15;98730.88;;;3.47;100.00
60170;BME280;46042;49.444;6.862;2023-12-20T01:14:42;98736.03;;;3.48;100.00
60170;BME280;46042;49.444;6.862;2023-12-20T01:17:09;98731.66;;;3.49;100.00
60170;BME280;46042;49.444;6.862;2023-12-20T01:19:36;98729.78;;;3.54;100.00
60170;BME280;46042;49.444;6.862;2023-12-20T01:22:03;98733.06;;;3.59;100.00
60170;BME280;46042;49.444;6.862;2023-12-20T01:24:30;98734.22;;;3.50;100.00
60170;BME280;46042;49.444;6.862;2023-12-20T01:26:57;98732.47;;;3.51;100.00
60170;BME280;46042;49.444;6.862;2023-12-20T01:29:24;98730.44;;;3.59;100.00
60170;BME280;46042;49.444;6.862;2023-12-20T01:31:50;98724.22;;;3.63;100.00
60170;BME280;46042;49.444;6.862;2023-12-20T01:34:17;98717.03;;;3.70;100.00
60170;BME280;46042;49.444;6.862;2023-12-20T01:36:44;98718.78;;;3.69;100.00
60170;BME280;46042;49.444;6.862;2023-12-20T01:39:11;98722.13;;;3.73;100.00
60170;BME280;46042;49.444;6.862;2023-12-20T01:41:53;98724.84;;;3.70;100.00
60170;BME280;46042;49.444;6.862;2023-12-20T01:44:19;98735.94;;;3.75;100.00
60170;BME280;46042;49.444;6.862;2023-12-20T01:46:47;98740.19;;;3.78;100.00
60170;BME280;46042;49.444;6.862;2023-12-20T01:49:14;98736.97;;;3.71;100.00
60170;BME280;46042;49.444;6.862;2023-12-20T01:51:42;98750.78;;;3.73;100.00
60170;BME280;46042;49.444;6.862;2023-12-20T01:54:09;98750.91;;;3.70;100.00
60170;BME280;46042;49.444;6.862;2023-12-20T01:56:36;98741.16;;;3.75;100.00
60170;BME280;46042;49.444;6.862;2023-12-20T01:59:03;98751.38;;;3.81;100.00
60170;BME280;46042;49.444;6.862;2023-12-20T02:01:31;98736.41;;;3.87;100.00
60170;BME280;46042;49.444;6.862;2023-12-20T02:03:59;98727.84;;;3.83;100.00
60170;BME280;46042;49.444;6.862;2023-12-20T02:06:29;98727.78;;;3.84;100.00
60170;BME280;46042;49.444;6.862;2023-12-20T02:08:57;98723.66;;;3.79;100.00
60170;BME280;46042;49.444;6.862;2023-12-20T02:11:25;98742.69;;;3.81;100.00
60170;BME280;46042;49.444;6.862;2023-12-20T02:13:53;98747.00;;;3.82;100.00
60170;BME280;46042;49.444;6.862;2023-12-20T02:16:21;98739.97;;;3.84;100.00
60170;BME280;46042;49.444;6.862;2023-12-20T02:18:48;98733.69;;;3.90;100.00
60170;BME280;46042;49.444;6.862;2023-12-20T02:21:15;98731.03;;;3.91;100.00
60170;BME280;46042;49.444;6.862;2023-12-20T02:23:42;98731.84;;;3.92;100.00
60170;BME280;46042;49.444;6.862;2023-12-20T02:26:09;98721.78;;;3.82;100.00
60170;BME280;46042;49.444;6.862;2023-12-20T02:28:35;98741.66;;;3.85;100.00
60170;BME280;46042;49.444;6.862;2023-12-20T02:31:02;98733.13;;;3.81;100.00
60170;BME280;46042;49.444;6.862;2023-12-20T02:33:29;98739.00;;;3.87;100.00
60170;BME280;46042;49.444;6.862;2023-12-20T02:35:56;98751.25;;;3.84;100.00
60170;BME280;46042;49.444;6.862;2023-12-20T02:38:23;98758.16;;;3.86;100.00
60170;BME280;46042;49.444;6.862;2023-12-20T02:40:50;98758.03;;;3.89;100.00
60170;BME280;46042;49.444;6.862;2023-12-20T02:43:16;98750.28;;;3.87;100.00
60170;BME280;46042;49.444;6.862;2023-12-20T02:45:43;98758.78;;;3.92;100.00
60170;BME280;46042;49.444;6.862;2023-12-20T02:48:10;98740.31;;;3.98;100.00
60170;BME280;46042;49.444;6.862;2023-12-20T02:50:37;98756.56;;;4.05;100.00
60170;BME280;46042;49.444;6.862;2023-12-20T02:53:03;98762.69;;;4.04;100.00
60170;BME280;46042;49.444;6.862;2023-12-20T02:55:30;98757.34;;;4.07;100.00
60170;BME280;46042;49.444;6.862;2023-12-20T02:57:57;98758.09;;;4.11;100.00
60170;BME280;46042;49.444;6.862;2023-12-20T03:00:24;98754.69;;;4.09;100.00
60170;BME280;46042;49.444;6.862;2023-12-20T03:02:51;98759.84;;;4.10;100.00
60170;BME280;46042;49.444;6.862;2023-12-20T03:05:17;98750.41;;;4.08;100.00
60170;BME280;46042;49.444;6.862;2023-12-20T03:07:44;98753.75;;;4.11;100.00
60170;BME280;46042;49.444;6.862;2023-12-20T03:10:12;98768.78;;;4.05;100.00
60170;BME280;46042;49.444;6.862;2023-12-20T03:12:49;98763.59;;;4.03;100.00
60170;BME280;46042;49.444;6.862;2023-12-20T03:15:16;98757.34;;;4.07;100.00
60170;BME280;46042;49.444;6.862;2023-12-20T03:17:43;98765.19;;;4.07;100.00
60170;BME280;46042;49.444;6.862;2023-12-20T03:20:11;98778.16;;;4.09;100.00
60170;BME280;46042;49.444;6.862;2023-12-20T03:22:37;98777.50;;;4.04;100.00
60170;BME280;46042;49.444;6.862;2023-12-20T03:25:04;98779.13;;;4.06;100.00
60170;BME280;46042;49.444;6.862;2023-12-20T03:27:31;98777.25;;;4.10;100.00
60170;BME280;46042;49.444;6.862;2023-12-20T03:29:58;98787.00;;;4.05;100.00
60170;BME280;46042;49.444;6.862;2023-12-20T03:32:24;98786.94;;;4.06;100.00
60170;BME280;46042;49.444;6.862;2023-12-20T03:34:51;98784.16;;;4.11;100.00
60170;BME280;46042;49.444;6.862;2023-12-20T03:37:18;98806.69;;;4.13;100.00
60170;BME280;46042;49.444;6.862;2023-12-20T03:39:45;98798.66;;;4.18;100.00
60170;BME280;46042;49.444;6.862;2023-12-20T03:42:12;98798.66;;;4.18;100.00
60170;BME280;46042;49.444;6.862;2023-12-20T03:44:39;98796.81;;;4.22;100.00
60170;BME280;46042;49.444;6.862;2023-12-20T03:47:09;98810.75;;;4.21;100.00
60170;BME280;46042;49.444;6.862;2023-12-20T03:49:35;98806.31;;;4.23;100.00
60170;BME280;46042;49.444;6.862;2023-12-20T03:52:06;98808.66;;;4.07;100.00
60170;BME280;46042;49.444;6.862;2023-12-20T03:54:35;98804.41;;;4.04;100.00
60170;BME280;46042;49.444;6.862;2023-12-20T03:57:02;98796.66;;;4.03;100.00
60170;BME280;46042;49.444;6.862;2023-12-20T03:59:29;98810.03;;;3.92;100.00
60170;BME280;46042;49.444;6.862;2023-12-20T04:01:55;98821.28;;;3.94;100.00
60170;BME280;46042;49.444;6.862;2023-12-20T04:04:22;98814.59;;;3.87;100.00
60170;BME280;46042;49.444;6.862;2023-12-20T04:06:49;98816.16;;;3.91;100.00
60170;BME280;46042;49.444;6.862;2023-12-20T04:09:16;98820.53;;;3.90;100.00
60170;BME280;46042;49.444;6.862;2023-12-20T04:11:43;98814.09;;;3.75;100.00
60170;BME280;46042;49.444;6.862;2023-12-20T04:14:09;98818.38;;;3.78;100.00
60170;BME280;46042;49.444;6.862;2023-12-20T04:16:36;98822.16;;;3.69;100.00
60170;BME280;46042;49.444;6.862;2023-12-20T04:19:03;98825.81;;;3.63;100.00
60170;BME280;46042;49.444;6.862;2023-12-20T04:21:31;98822.38;;;3.63;100.00
60170;BME280;46042;49.444;6.862;2023-12-20T04:23:57;98833.69;;;3.62;100.00
60170;BME280;46042;49.444;6.862;2023-12-20T04:26:24;98835.81;;;3.50;100.00
60170;BME280;46042;49.444;6.862;2023-12-20T04:28:51;98837.75;;;3.44;100.00
60170;BME280;46042;49.444;6.862;2023-12-20T04:31:20;98844.88;;;3.38;100.00
60170;BME280;46042;49.444;6.862;2023-12-20T04:33:47;98861.56;;;3.33;100.00
60170;BME280;46042;49.444;6.862;2023-12-20T04:36:14;98856.81;;;3.19;100.00
60170;BME280;46042;49.444;6.862;2023-12-20T04:38:40;98849.72;;;3.22;100.00
60170;BME280;46042;49.444;6.862;2023-12-20T04:41:07;98852.66;;;3.13;100.00
60170;BME280;46042;49.444;6.862;2023-12-20T04:43:34;98844.19;;;3.06;100.00
60170;BME280;46042;49.444;6.862;2023-12-20T04:46:00;98845.13;;;3.04;100.00
60170;BME280;46042;49.444;6.862;2023-12-20T04:48:27;98854.88;;;2.97;100.00
60170;BME280;46042;49.444;6.862;2023-12-20T04:50:54;98858.28;;;2.99;100.00
60170;BME280;46042;49.444;6.862;2023-12-20T04:53:20;98856.91;;;2.87;100.00
60170;BME280;46042;49.444;6.862;2023-12-20T04:55:47;98868.22;;;2.86;100.00
60170;BME280;46042;49.444;6.862;2023-12-20T04:58:14;98875.53;;;2.75;100.00
60170;BME280;46042;49.444;6.862;2023-12-20T05:00:41;98873.63;;;2.80;100.00
60170;BME280;46042;49.444;6.862;2023-12-20T05:03:07;98872.81;;;2.78;100.00
60170;BME280;46042;49.444;6.862;2023-12-20T05:05:34;98873.53;;;2.83;100.00
60170;BME280;46042;49.444;6.862;2023-12-20T05:08:01;98868.44;;;2.78;100.00
60170;BME280;46042;49.444;6.862;2023-12-20T05:10:28;98862.56;;;2.72;100.00
60170;BME280;46042;49.444;6.862;2023-12-20T05:12:54;98868.56;;;2.75;100.00
60170;BME280;46042;49.444;6.862;2023-12-20T05:15:21;98878.25;;;2.70;100.00
60170;BME280;46042;49.444;6.862;2023-12-20T05:17:48;98878.19;;;2.72;100.00
60170;BME280;46042;49.444;6.862;2023-12-20T05:20:15;98889.50;;;2.70;100.00
60170;BME280;46042;49.444;6.862;2023-12-20T05:22:42;98899.91;;;2.70;100.00
60170;BME280;46042;49.444;6.862;2023-12-20T05:25:09;98896.41;;;2.72;100.00
60170;BME280;46042;49.444;6.862;2023-12-20T05:27:35;98906.00;;;2.69;100.00
60170;BME280;46042;49.444;6.862;2023-12-20T05:30:02;98899.19;;;2.65;100.00
60170;BME280;46042;49.444;6.862;2023-12-20T05:32:31;98901.91;;;2.61;100.00
60170;BME280;46042;49.444;6.862;2023-12-20T05:34:57;98901.13;;;2.59;100.00
60170;BME280;46042;49.444;6.862;2023-12-20T05:37:24;98913.34;;;2.55;100.00
60170;BME280;46042;49.444;6.862;2023-12-20T05:39:51;98917.84;;;2.50;100.00
60170;BME280;46042;49.444;6.862;2023-12-20T05:42:18;98911.72;;;2.52;100.00
60170;BME280;46042;49.444;6.862;2023-12-20T05:44:44;98913.44;;;2.52;100.00
60170;BME280;46042;49.444;6.862;2023-12-20T05:47:11;98920.44;;;2.50;100.00
60170;BME280;46042;49.444;6.862;2023-12-20T05:49:38;98912.84;;;2.42;100.00
60170;BME280;46042;49.444;6.862;2023-12-20T05:52:05;98923.09;;;2.48;100.00
60170;BME280;46042;49.444;6.862;2023-12-20T05:54:31;98927.41;;;2.49;100.00
60170;BME280;46042;49.444;6.862;2023-12-20T05:56:58;98927.44;;;2.48;100.00
60170;BME280;46042;49.444;6.862;2023-12-20T05:59:25;98933.44;;;2.50;100.00
60170;BME280;46042;49.444;6.862;2023-12-20T06:01:51;98935.31;;;2.45;100.00
60170;BME280;46042;49.444;6.862;2023-12-20T06:04:18;98935.22;;;2.48;100.00
60170;BME280;46042;49.444;6.862;2023-12-20T06:06:47;98928.22;;;2.51;100.00
60170;BME280;46042;49.444;6.862;2023-12-20T06:09:14;98939.44;;;2.52;100.00
60170;BME280;46042;49.444;6.862;2023-12-20T06:11:42;98942.72;;;2.59;100.00
60170;BME280;46042;49.444;6.862;2023-12-20T06:14:08;98942.59;;;2.63;100.00
60170;BME280;46042;49.444;6.862;2023-12-20T06:16:35;98939.94;;;2.65;100.00
60170;BME280;46042;49.444;6.862;2023-12-20T06:19:02;98949.53;;;2.63;100.00
60170;BME280;46042;49.444;6.862;2023-12-20T06:21:29;98950.50;;;2.60;100.00
60170;BME280;46042;49.444;6.862;2023-12-20T06:23:55;98957.34;;;2.63;100.00
60170;BME280;46042;49.444;6.862;2023-12-20T06:26:22;98949.50;;;2.64;100.00
60170;BME280;46042;49.444;6.862;2023-12-20T06:28:49;98951.22;;;2.65;100.00
60170;BME280;46042;49.444;6.862;2023-12-20T06:31:15;98952.91;;;2.66;100.00
60170;BME280;46042;49.444;6.862;2023-12-20T06:33:43;98951.31;;;2.62;100.00
60170;BME280;46042;49.444;6.862;2023-12-20T06:36:13;98951.34;;;2.61;100.00
60170;BME280;46042;49.444;6.862;2023-12-20T06:38:40;98954.00;;;2.59;100.00
60170;BME280;46042;49.444;6.862;2023-12-20T06:41:08;98951.34;;;2.61;100.00
60170;BME280;46042;49.444;6.862;2023-12-20T06:43:35;98950.44;;;2.62;100.00
60170;BME280;46042;49.444;6.862;2023-12-20T06:46:15;98950.44;;;2.62;100.00
60170;BME280;46042;49.444;6.862;2023-12-20T06:48:42;98950.41;;;2.63;100.00
60170;BME280;46042;49.444;6.862;2023-12-20T06:51:16;98946.00;;;2.65;100.00
60170;BME280;46042;49.444;6.862;2023-12-20T06:53:43;98944.41;;;2.61;100.00
60170;BME280;46042;49.444;6.862;2023-12-20T06:56:10;98947.91;;;2.60;100.00
60170;BME280;46042;49.444;6.862;2023-12-20T06:58:42;98949.63;;;2.60;100.00
60170;BME280;46042;49.444;6.862;2023-12-20T07:01:12;98942.63;;;2.62;100.00
60170;BME280;46042;49.444;6.862;2023-12-20T07:03:39;98954.94;;;2.56;100.00
60170;BME280;46042;49.444;6.862;2023-12-20T07:06:07;98956.53;;;2.61;100.00
60170;BME280;46042;49.444;6.862;2023-12-20T07:08:34;98966.94;;;2.61;100.00
60170;BME280;46042;49.444;6.862;2023-12-20T07:11:00;98960.91;;;2.60;100.00
60170;BME280;46042;49.444;6.862;2023-12-20T07:13:27;98962.53;;;2.63;100.00
60170;BME280;46042;49.444;6.862;2023-12-20T07:15:54;98965.13;;;2.64;100.00
60170;BME280;46042;49.444;6.862;2023-12-20T07:18:20;98958.09;;;2.68;100.00
60170;BME280;46042;49.444;6.862;2023-12-20T07:20:47;98955.47;;;2.68;100.00
60170;BME280;46042;49.444;6.862;2023-12-20T07:23:14;98961.44;;;2.72;100.00
60170;BME280;46042;49.444;6.862;2023-12-20T07:25:41;98964.03;;;2.72;100.00
60170;BME280;46042;49.444;6.862;2023-12-20T07:28:07;98970.94;;;2.73;100.00
60170;BME280;46042;49.444;6.862;2023-12-20T07:30:34;98970.00;;;2.75;100.00
60170;BME280;46042;49.444;6.862;2023-12-20T07:33:01;98969.97;;;2.77;100.00
60170;BME280;46042;49.444;6.862;2023-12-20T07:35:29;98977.78;;;2.77;100.00
60170;BME280;46042;49.444;6.862;2023-12-20T07:37:56;98974.38;;;2.75;100.00
60170;BME280;46042;49.444;6.862;2023-12-20T07:40:23;98977.81;;;2.75;100.00
60170;BME280;46042;49.444;6.862;2023-12-20T07:42:50;98976.19;;;2.71;100.00
60170;BME280;46042;49.444;6.862;2023-12-20T07:45:17;98989.00;;;2.79;100.00
60170;BME280;46042;49.444;6.862;2023-12-20T07:47:44;98989.91;;;2.76;100.00
60170;BME280;46042;49.444;6.862;2023-12-20T07:50:11;99000.16;;;2.82;100.00
60170;BME280;46042;49.444;6.862;2023-12-20T07:52:38;99004.72;;;2.74;100.00
60170;BME280;46042;49.444;6.862;2023-12-20T07:55:05;98995.94;;;2.78;100.00
60170;BME280;46042;49.444;6.862;2023-12-20T07:57:32;98999.22;;;2.85;100.00
60170;BME280;46042;49.444;6.862;2023-12-20T07:59:59;99010.50;;;2.86;100.00
60170;BME280;46042;49.444;6.862;2023-12-20T08:02:25;99014.78;;;2.87;100.00
60170;BME280;46042;49.444;6.862;2023-12-20T08:04:52;99012.94;;;2.90;100.00
60170;BME280;46042;49.444;6.862;2023-12-20T08:07:19;99013.84;;;2.89;100.00
60170;BME280;46042;49.444;6.862;2023-12-20T08:09:46;99010.44;;;2.87;100.00
60170;BME280;46042;49.444;6.862;2023-12-20T08:12:12;99006.94;;;2.88;100.00
60170;BME280;46042;49.444;6.862;2023-12-20T08:14:39;99018.09;;;2.93;100.00
60170;BME280;46042;49.444;6.862;2023-12-20T08:17:06;99009.53;;;2.88;100.00
60170;BME280;46042;49.444;6.862;2023-12-20T08:19:32;99006.50;;;3.04;100.00
60170;BME280;46042;49.444;6.862;2023-12-20T08:21:59;99001.34;;;3.02;100.00
60170;BME280;46042;49.444;6.862;2023-12-20T08:24:26;99013.31;;;3.08;100.00
60170;BME280;46042;49.444;6.862;2023-12-20T08:26:52;99019.41;;;3.07;100.00
60170;BME280;46042;49.444;6.862;2023-12-20T08:29:19;99015.06;;;3.07;100.00
60170;BME280;46042;49.444;6.862;2023-12-20T08:31:52;99013.38;;;3.06;100.00
60170;BME280;46042;49.444;6.862;2023-12-20T08:34:19;99012.56;;;3.04;100.00
60170;BME280;46042;49.444;6.862;2023-12-20T08:36:45;99020.28;;;3.07;100.00
60170;BME280;46042;49.444;6.862;2023-12-20T08:39:12;99012.50;;;3.06;100.00
60170;BME280;46042;49.444;6.862;2023-12-20T08:41:39;99010.66;;;3.09;100.00
60170;BME280;46042;49.444;6.862;2023-12-20T08:44:05;99005.38;;;3.12;100.00
60170;BME280;46042;49.444;6.862;2023-12-20T08:46:32;99018.34;;;3.14;100.00
60170;BME280;46042;49.444;6.862;2023-12-20T08:48:59;99012.34;;;3.12;100.00
60170;BME280;46042;49.444;6.862;2023-12-20T08:51:27;99014.03;;;3.13;100.00
60170;BME280;46042;49.444;6.862;2023-12-20T08:53:54;99011.22;;;3.21;100.00
60170;BME280;46042;49.444;6.862;2023-12-20T08:56:21;99009.50;;;3.20;100.00
60170;BME280;46042;49.444;6.862;2023-12-20T08:58:48;99011.22;;;3.21;100.00
60170;BME280;46042;49.444;6.862;2023-12-20T09:01:15;99021.50;;;3.25;100.00
60170;BME280;46042;49.444;6.862;2023-12-20T09:03:42;99018.78;;;3.29;100.00
60170;BME280;46042;49.444;6.862;2023-12-20T09:06:10;99022.09;;;3.34;100.00
60170;BME280;46042;49.444;6.862;2023-12-20T09:08:36;99021.50;;;3.25;100.00
60170;BME280;46042;49.444;6.862;2023-12-20T09:11:03;99028.22;;;3.33;100.00
60170;BME280;46042;49.444;6.862;2023-12-20T09:13:30;99027.88;;;3.44;100.00
60170;BME280;46042;49.444;6.862;2023-12-20T09:15:58;99024.47;;;3.41;100.00
60170;BME280;46042;49.444;6.862;2023-12-20T09:18:25;99029.72;;;3.40;100.00
60170;BME280;46042;49.444;6.862;2023-12-20T09:20:55;99024.59;;;3.37;100.00
60170;BME280;46042;49.444;6.862;2023-12-20T09:23:22;99021.09;;;3.38;100.00
60170;BME280;46042;49.444;6.862;2023-12-20T09:25:48;99019.50;;;3.34;100.00
60170;BME280;46042;49.444;6.862;2023-12-20T09:28:15;99027.97;;;3.40;100.00
60170;BME280;46042;49.444;6.862;2023-12-20T09:30:42;99030.53;;;3.42;100.00
60170;BME280;46042;49.444;6.862;2023-12-20T09:33:11;99035.00;;;3.38;100.00
60170;BME280;46042;49.444;6.862;2023-12-20T09:35:38;99033.38;;;3.34;100.00
60170;BME280;46042;49.444;6.862;2023-12-20T09:38:06;99042.72;;;3.41;100.00
60170;BME280;46042;49.444;6.862;2023-12-20T09:40:33;99038.31;;;3.44;100.00
60170;BME280;46042;49.444;6.862;2023-12-20T09:43:10;99042.50;;;3.48;100.00
60170;BME280;46042;49.444;6.862;2023-12-20T09:45:38;99039.06;;;3.47;100.00
60170;BME280;46042;49.444;6.862;2023-12-20T09:48:07;99046.00;;;3.47;100.00
60170;BME280;46042;49.444;6.862;2023-12-20T09:50:37;99042.16;;;3.60;100.00
60170;BME280;46042;49.444;6.862;2023-12-20T09:53:05;99038.84;;;3.55;100.00
60170;BME280;46042;49.444;6.862;2023-12-20T09:55:39;99029.97;;;3.61;100.00
60170;BME280;46042;49.444;6.862;2023-12-20T09:58:07;99021.94;;;3.68;100.00
60170;BME280;46042;49.444;6.862;2023-12-20T10:00:35;99026.28;;;3.68;100.00
60170;BME280;46042;49.444;6.862;2023-12-20T10:03:03;99024.34;;;3.75;100.00
60170;BME280;46042;49.444;6.862;2023-12-20T10:05:31;99030.38;;;3.75;100.00
60170;BME280;46042;49.444;6.862;2023-12-20T10:08:00;99027.69;;;3.78;100.00
60170;BME280;46042;49.444;6.862;2023-12-20T10:10:28;99029.47;;;3.76;100.00
60170;BME280;46042;49.444;6.862;2023-12-20T10:13:11;99037.91;;;3.84;100.00
60170;BME280;46042;49.444;6.862;2023-12-20T10:15:39;99035.28;;;3.86;100.00
60170;BME280;46042;49.444;6.862;2023-12-20T10:18:08;99040.66;;;3.80;100.00
60170;BME280;46042;49.444;6.862;2023-12-20T10:20:36;99049.59;;;3.73;100.00
60170;BME280;46042;49.444;6.862;2023-12-20T10:23:03;99046.91;;;3.74;100.00
60170;BME280;46042;49.444;6.862;2023-12-20T10:25:30;99038.91;;;3.80;100.00
60170;BME280;46042;49.444;6.862;2023-12-20T10:28:12;99018.19;;;3.77;100.00
60170;BME280;46042;49.444;6.862;2023-12-20T10:30:41;99005.19;;;3.76;100.00
60170;BME280;46042;49.444;6.862;2023-12-20T10:33:08;99009.50;;;3.77;100.00
60170;BME280;46042;49.444;6.862;2023-12-20T10:35:36;98996.00;;;3.91;100.00
60170;BME280;46042;49.444;6.862;2023-12-20T10:38:05;98991.59;;;3.93;100.00
60170;BME280;46042;49.444;6.862;2023-12-20T10:40:35;98988.13;;;3.94;100.00
60170;BME280;46042;49.444;6.862;2023-12-20T10:43:05;98992.97;;;4.05;100.00
60170;BME280;46042;49.444;6.862;2023-12-20T10:45:33;98994.81;;;4.01;100.00
60170;BME280;46042;49.444;6.862;2023-12-20T10:48:01;98999.00;;;4.05;100.00
60170;BME280;46042;49.444;6.862;2023-12-20T10:50:30;98990.28;;;4.06;100.00
60170;BME280;46042;49.444;6.862;2023-12-20T10:52:58;98982.53;;;4.05;100.00
60170;BME280;46042;49.444;6.862;2023-12-20T10:55:25;98983.22;;;4.10;100.00
60170;BME280;46042;49.444;6.862;2023-12-20T10:58:22;98981.28;;;4.15;100.00
60170;BME280;46042;49.444;6.862;2023-12-20T11:00:59;98981.19;;;4.18;100.00
60170;BME280;46042;49.444;6.862;2023-12-20T11:03:27;98981.78;;;4.26;100.00
60170;BME280;46042;49.444;6.862;2023-12-20T11:06:03;98984.94;;;4.36;100.00
60170;BME280;46042;49.444;6.862;2023-12-20T11:08:39;98973.69;;;4.34;100.00
60170;BME280;46042;49.444;6.862;2023-12-20T11:11:16;98983.59;;;4.24;100.00
60170;BME280;46042;49.444;6.862;2023-12-20T11:14:25;98982.69;;;4.25;100.00
60170;BME280;46042;49.444;6.862;2023-12-20T11:17:06;98985.34;;;4.24;100.00
60170;BME280;46042;49.444;6.862;2023-12-20T11:19:32;98976.31;;;4.09;100.00
60170;BME280;46042;49.444;6.862;2023-12-20T11:22:04;98976.31;;;4.09;100.00
60170;BME280;46042;49.444;6.862;2023-12-20T11:24:31;98975.44;;;4.08;100.00
60170;BME280;46042;49.444;6.862;2023-12-20T11:27:00;98968.34;;;4.13;100.00
60170;BME280;46042;49.444;6.862;2023-12-20T11:29:36;98972.53;;;4.18;100.00
60170;BME280;46042;49.444;6.862;2023-12-20T11:34:51;98961.19;;;4.19;100.00
60170;BME280;46042;49.444;6.862;2023-12-20T11:37:20;98977.78;;;4.16;100.00
60170;BME280;46042;49.444;6.862;2023-12-20T11:40:00;98972.75;;;4.11;100.00
60170;BME280;46042;49.444;6.862;2023-12-20T11:42:41;98970.97;;;4.12;100.00
60170;BME280;46042;49.444;6.862;2023-12-20T11:45:14;98972.75;;;4.11;100.00
60170;BME280;46042;49.444;6.862;2023-12-20T11:47:50;98979.75;;;4.09;100.00
60170;BME280;46042;49.444;6.862;2023-12-20T11:50:18;98974.50;;;4.11;100.00
60170;BME280;46042;49.444;6.862;2023-12-20T11:52:46;98978.91;;;4.09;100.00
60170;BME280;46042;49.444;6.862;2023-12-20T11:55:13;98974.50;;;4.11;100.00
60170;BME280;46042;49.444;6.862;2023-12-20T11:57:39;98966.00;;;4.06;100.00
60170;BME280;46042;49.444;6.862;2023-12-20T12:00:06;98977.25;;;4.06;100.00
60170;BME280;46042;49.444;6.862;2023-12-20T12:02:33;98976.41;;;4.06;100.00
60170;BME280;46042;49.444;6.862;2023-12-20T12:05:00;98982.56;;;4.03;100.00
60170;BME280;46042;49.444;6.862;2023-12-20T12:07:27;98972.94;;;4.05;100.00
60170;BME280;46042;49.444;6.862;2023-12-20T12:09:53;98969.25;;;4.12;100.00
60170;BME280;46042;49.444;6.862;2023-12-20T12:12:20;98966.44;;;4.17;100.00
60170;BME280;46042;49.444;6.862;2023-12-20T12:14:47;98976.34;;;4.07;100.00
60170;BME280;46042;49.444;6.862;2023-12-20T12:17:15;98978.94;;;4.07;100.00
60170;BME280;46042;49.444;6.862;2023-12-20T12:19:42;98973.56;;;4.13;100.00
60170;BME280;46042;49.444;6.862;2023-12-20T12:22:13;98974.19;;;4.20;100.00
60170;BME280;46042;49.444;6.862;2023-12-20T12:24:46;98973.22;;;4.23;100.00
60170;BME280;46042;49.444;6.862;2023-12-20T12:27:13;98976.09;;;4.15;100.00
60170;BME280;46042;49.444;6.862;2023-12-20T12:29:40;98978.75;;;4.13;100.00
60170;BME280;46042;49.444;6.862;2023-12-20T12:32:08;98974.44;;;4.12;100.00
60170;BME280;46042;49.444;6.862;2023-12-20T12:34:36;98965.00;;;4.08;100.00
60170;BME280;46042;49.444;6.862;2023-12-20T12:37:06;98971.84;;;4.12;100.00
60170;BME280;46042;49.444;6.862;2023-12-20T12:39:34;98965.47;;;4.21;100.00
60170;BME280;46042;49.444;6.862;2023-12-20T12:42:00;98954.06;;;4.24;100.00
60170;BME280;46042;49.444;6.862;2023-12-20T12:44:27;98932.34;;;4.23;100.00
60170;BME280;46042;49.444;6.862;2023-12-20T12:46:54;98925.88;;;4.34;100.00
60170;BME280;46042;49.444;6.862;2023-12-20T12:49:21;98921.13;;;4.21;100.00
60170;BME280;46042;49.444;6.862;2023-12-20T12:51:48;98909.84;;;4.21;100.00
60170;BME280;46042;49.444;6.862;2023-12-20T12:54:15;98901.00;;;4.25;100.00
60170;BME280;46042;49.444;6.862;2023-12-20T12:56:44;98893.97;;;4.27;100.00
60170;BME280;46042;49.444;6.862;2023-12-20T12:59:10;98893.75;;;4.33;100.00
60170;BME280;46042;49.444;6.862;2023-12-20T13:01:37;98905.53;;;4.44;100.00
60170;BME280;46042;49.444;6.862;2023-12-20T13:04:05;98896.53;;;4.52;100.00
60170;BME280;46042;49.444;6.862;2023-12-20T13:06:38;98898.63;;;4.43;100.00